createdAt,value
2023-01-11T00:04:47.326Z,18.90
2023-01-11T00:09:50.710Z,20.10
2023-01-11T00:14:53.437Z,17.20
2023-01-11T00:19:56.666Z,21.50
2023-01-11T00:24:59.677Z,20.40
2023-01-11T00:30:03.190Z,21.60
2023-01-11T00:35:06.777Z,19.60
2023-01-11T00:40:09.956Z,21.10
2023-01-11T00:45:31.987Z,20.40
2023-01-11T00:50:38.763Z,19.50
2023-01-11T00:55:42.524Z,18.50
2023-01-11T01:00:45.243Z,21.70
2023-01-11T01:05:47.992Z,21.50
2023-01-11T01:10:52.701Z,20.90
2023-01-11T01:16:00.123Z,21.20
2023-01-11T01:21:03.009Z,23.10
2023-01-11T01:26:06.312Z,21.10
2023-01-11T01:31:09.242Z,20.60
2023-01-11T01:36:12.282Z,23.00
2023-01-11T01:41:14.640Z,21.40
2023-01-11T01:46:18.334Z,20.60
2023-01-11T01:51:31.511Z,22.20
2023-01-11T01:56:46.076Z,24.00
2023-01-11T02:01:50.630Z,22.10
2023-01-11T02:07:03.500Z,20.60
2023-01-11T02:12:07.037Z,22.50
2023-01-11T02:17:10.707Z,23.10
2023-01-11T02:22:35.977Z,20.70
2023-01-11T02:27:57.644Z,20.40
2023-01-11T02:33:34.593Z,21.50
2023-01-11T02:38:55.924Z,19.90
2023-01-11T02:44:43.801Z,24.90
2023-01-11T02:50:04.139Z,21.30
2023-01-11T02:55:10.434Z,20.30
2023-01-11T03:00:17.673Z,14.20
2023-01-11T03:05:20.915Z,17.50
2023-01-11T03:10:50.424Z,16.60
2023-01-11T03:16:08.747Z,19.60
2023-01-11T03:26:46.232Z,19.80
2023-01-11T03:32:00.509Z,20.70
2023-01-11T03:37:16.304Z,25.20
2023-01-11T03:42:24.416Z,19.60
2023-01-11T03:47:30.884Z,25.10
2023-01-11T03:52:42.220Z,22.40
2023-01-11T03:57:52.789Z,23.60
2023-01-11T04:02:56.205Z,22.80
2023-01-11T04:07:58.835Z,25.90
2023-01-11T04:13:03.633Z,28.40
2023-01-11T04:18:06.783Z,23.20
2023-01-11T04:23:12.627Z,23.70
2023-01-11T04:28:17.205Z,28.00
2023-01-11T04:33:20.337Z,27.60
2023-01-11T04:38:25.863Z,21.40
2023-01-11T04:43:29.247Z,24.50
2023-01-11T04:48:33.744Z,23.40
2023-01-11T04:53:36.461Z,24.90
2023-01-11T04:58:39.262Z,24.40
2023-01-11T05:03:42.579Z,23.70
2023-01-11T05:08:47.422Z,24.50
2023-01-11T05:13:50.953Z,22.30
2023-01-11T05:18:56.335Z,21.60
2023-01-11T05:24:01.819Z,21.90
2023-01-11T05:29:08.764Z,18.30
2023-01-11T05:34:14.692Z,16.60
2023-01-11T05:39:16.673Z,15.10
2023-01-11T05:44:39.041Z,16.90
2023-01-11T05:49:43.718Z,14.80
2023-01-11T05:54:47.085Z,16.20
2023-01-11T05:59:50.255Z,11.20
2023-01-11T06:04:55.463Z,15.80
2023-01-11T06:09:59.872Z,14.50
2023-01-11T06:15:03.203Z,16.40
2023-01-11T06:20:07.736Z,14.50
2023-01-11T06:25:11.737Z,13.80
2023-01-11T06:30:16.256Z,13.90
2023-01-11T06:35:20.352Z,13.80
2023-01-11T06:40:24.298Z,13.70
2023-01-11T06:45:27.644Z,14.70
2023-01-11T06:50:32.555Z,14.00
2023-01-11T06:55:36.492Z,12.10
2023-01-11T07:00:39.632Z,14.90
2023-01-11T07:05:44.359Z,15.70
2023-01-11T07:10:49.069Z,10.70
2023-01-11T07:15:54.102Z,14.00
2023-01-11T07:20:57.308Z,13.60
2023-01-11T07:26:01.061Z,10.90
2023-01-11T07:31:05.328Z,13.50
2023-01-11T07:36:08.926Z,11.90
2023-01-11T07:41:30.175Z,12.40
2023-01-11T07:46:32.490Z,13.50
2023-01-11T07:51:35.139Z,12.70
2023-01-11T07:56:39.257Z,12.50
2023-01-11T08:01:41.821Z,12.60
2023-01-11T08:06:46.808Z,14.50
2023-01-11T08:12:09.820Z,13.40
2023-01-11T08:17:16.663Z,12.50
2023-01-11T08:22:19.442Z,10.60
2023-01-11T08:27:21.729Z,14.00
2023-01-11T08:32:28.890Z,13.80
2023-01-11T08:37:32.688Z,13.00
2023-01-11T08:42:35.726Z,14.10
2023-01-11T08:47:38.727Z,14.10
2023-01-11T08:52:43.584Z,14.60
2023-01-11T08:57:47.903Z,16.70
2023-01-11T09:02:51.129Z,13.50
2023-01-11T09:07:58.314Z,16.60
2023-01-11T09:13:00.897Z,13.10
2023-01-11T09:18:03.098Z,11.90
2023-01-11T09:23:06.924Z,16.30
2023-01-11T09:28:10.150Z,15.00
2023-01-11T09:33:13.161Z,15.50
2023-01-11T09:38:16.870Z,12.30
2023-01-11T09:43:25.789Z,14.20
2023-01-11T09:48:43.898Z,11.70
2023-01-11T09:59:47.090Z,11.50
2023-01-11T10:05:24.220Z,10.90
2023-01-11T10:18:26.392Z,9.20
2023-01-11T10:22:36.781Z,7.90
2023-01-11T10:27:49.777Z,8.70
2023-01-11T10:32:57.073Z,9.70
2023-01-11T10:38:38.360Z,6.10
2023-01-11T10:43:55.785Z,6.80
2023-01-11T10:49:37.723Z,7.70
2023-01-11T10:54:46.829Z,3.60
2023-01-11T11:00:09.280Z,6.30
2023-01-11T11:05:24.699Z,4.30
2023-01-11T11:10:37.175Z,5.00
2023-01-11T11:16:06.189Z,5.50
2023-01-11T11:21:23.972Z,3.90
2023-01-11T11:31:36.727Z,4.60
2023-01-11T11:36:44.917Z,4.10
2023-01-11T11:41:58.330Z,5.00
2023-01-11T11:47:18.873Z,4.80
2023-01-11T11:52:23.207Z,5.50
2023-01-11T11:57:33.955Z,5.70
2023-01-11T12:02:50.404Z,5.60
2023-01-11T12:07:55.836Z,5.70
2023-01-11T12:13:02.483Z,6.10
2023-01-11T12:18:27.097Z,5.30
2023-01-11T12:23:31.426Z,5.50
2023-01-11T12:28:53.032Z,7.40
2023-01-11T12:34:10.602Z,6.10
2023-01-11T12:39:37.193Z,5.60
2023-01-11T12:44:48.908Z,6.40
2023-01-11T12:50:31.515Z,7.00
2023-01-11T12:55:47.068Z,6.00
2023-01-11T13:01:08.635Z,7.30
2023-01-11T13:06:46.287Z,7.20
2023-01-11T13:12:05.121Z,8.10
2023-01-11T13:17:36.978Z,5.80
2023-01-11T13:22:45.337Z,8.00
2023-01-11T13:27:52.968Z,8.20
2023-01-11T13:33:08.319Z,5.00
2023-01-11T13:38:34.835Z,7.80
2023-01-11T13:44:00.204Z,5.90
2023-01-11T13:49:25.925Z,6.60
2023-01-11T13:54:29.648Z,6.60
2023-01-11T13:59:46.742Z,5.90
2023-01-11T14:04:59.623Z,6.40
2023-01-11T14:10:36.175Z,6.80
2023-01-11T14:16:19.128Z,6.40
2023-01-11T14:21:37.856Z,5.60
2023-01-11T14:27:07.992Z,6.20
2023-01-11T14:32:39.379Z,6.90
2023-01-11T14:37:41.684Z,6.10
2023-01-11T14:42:50.682Z,8.50
2023-01-11T14:48:02.831Z,6.10
2023-01-11T14:53:09.587Z,7.10
2023-01-11T14:58:18.749Z,8.90
2023-01-11T15:03:22.978Z,5.70
2023-01-11T15:08:44.961Z,7.40
2023-01-11T15:13:57.997Z,9.80
2023-01-11T15:19:09.127Z,6.70
2023-01-11T15:24:30.458Z,6.70
2023-01-11T15:29:40.559Z,7.80
2023-01-11T15:34:48.692Z,6.80
2023-01-11T15:39:59.545Z,6.50
2023-01-11T15:45:22.164Z,9.10
2023-01-11T15:50:48.185Z,8.20
2023-01-11T15:56:18.907Z,7.90
2023-01-11T16:01:26.350Z,8.80
2023-01-11T16:06:36.355Z,10.20
2023-01-11T16:12:11.854Z,9.60
2023-01-11T16:17:20.976Z,11.80
2023-01-11T16:22:27.929Z,11.70
2023-01-11T16:27:36.900Z,10.00
2023-01-11T16:32:39.337Z,13.20
2023-01-11T16:37:53.598Z,12.20
2023-01-11T16:43:09.638Z,13.00
2023-01-11T16:48:21.397Z,15.40
2023-01-11T16:53:33.070Z,14.00
2023-01-11T16:58:44.417Z,16.50
2023-01-11T17:04:00.182Z,19.90
2023-01-11T17:09:20.147Z,16.60
2023-01-11T17:14:38.071Z,19.90
2023-01-11T17:25:07.135Z,15.60
2023-01-11T17:30:24.822Z,17.40
2023-01-11T17:35:44.189Z,17.90
2023-01-11T17:40:49.441Z,16.20
2023-01-11T17:46:02.476Z,19.30
2023-01-11T17:51:25.815Z,17.90
2023-01-11T17:56:43.145Z,18.30
2023-01-11T18:01:54.479Z,19.70
2023-01-11T18:07:20.010Z,19.70
2023-01-11T18:12:37.134Z,18.10
2023-01-11T18:17:42.766Z,19.60
2023-01-11T18:23:04.722Z,18.80
2023-01-11T18:28:30.349Z,18.70
2023-01-11T18:33:34.776Z,20.00
2023-01-11T18:38:37.879Z,19.40
2023-01-11T18:43:43.970Z,17.30
2023-01-11T18:48:49.966Z,14.60
2023-01-11T18:53:55.632Z,16.70
2023-01-11T18:58:58.558Z,15.20
2023-01-11T19:04:01.788Z,16.10
2023-01-11T19:09:05.824Z,15.30
2023-01-11T19:14:10.174Z,16.30
2023-01-11T19:19:14.999Z,16.80
2023-01-11T19:24:19.630Z,16.60
2023-01-11T19:29:26.396Z,15.60
2023-01-11T19:34:35.522Z,16.10
2023-01-11T19:39:40.939Z,17.80
2023-01-11T19:44:44.056Z,14.60
2023-01-11T19:49:48.227Z,18.20
2023-01-11T19:54:55.514Z,16.10
2023-01-11T20:00:00.322Z,14.00
2023-01-11T20:05:07.586Z,16.20
2023-01-11T20:10:12.621Z,17.30
2023-01-11T20:15:17.586Z,17.00
2023-01-11T20:20:23.110Z,14.40
2023-01-11T20:25:27.866Z,16.50
2023-01-11T20:30:31.985Z,16.70
2023-01-11T20:35:35.308Z,81.10
2023-01-11T20:40:39.700Z,19.00
2023-01-11T20:45:43.925Z,14.50
2023-01-11T20:50:47.684Z,19.90
2023-01-11T20:55:51.077Z,18.60
2023-01-11T21:00:54.240Z,15.20
2023-01-11T21:05:57.855Z,17.60
2023-01-11T21:11:11.631Z,15.20
2023-01-11T21:16:16.040Z,14.90
2023-01-11T21:21:19.564Z,16.40
2023-01-11T21:26:21.885Z,12.30
2023-01-11T21:31:24.918Z,13.30
2023-01-11T21:36:30.517Z,15.10
2023-01-11T21:41:53.940Z,9.60
2023-01-11T21:46:56.958Z,13.30
2023-01-11T21:52:00.207Z,12.20
2023-01-11T21:57:03.407Z,11.60
2023-01-11T22:02:06.438Z,10.80
2023-01-11T22:07:09.559Z,10.70
2023-01-11T22:12:12.187Z,11.30
2023-01-11T22:17:15.035Z,11.10
2023-01-11T22:22:17.621Z,11.70
2023-01-11T22:27:20.550Z,9.20
2023-01-11T22:32:24.748Z,13.80
2023-01-11T22:37:28.986Z,12.50
2023-01-11T22:42:32.210Z,12.10
2023-01-11T22:47:36.699Z,9.10
2023-01-11T22:52:40.302Z,11.10
2023-01-11T22:57:43.520Z,14.80
2023-01-11T23:02:47.089Z,19.90
2023-01-11T23:07:50.695Z,10.20
2023-01-11T23:13:12.494Z,11.00
2023-01-11T23:18:16.128Z,9.40
2023-01-11T23:23:19.674Z,11.20
2023-01-11T23:28:23.030Z,13.10
2023-01-11T23:33:26.991Z,11.20
2023-01-11T23:38:33.334Z,15.50
2023-01-11T23:43:38.819Z,11.20
2023-01-11T23:48:40.973Z,11.50
2023-01-11T23:53:43.828Z,10.10
2023-01-11T23:58:46.860Z,10.60
